Time;durP1;ratioP1;P1;durP2;ratioP2;P2;SDS_P1;SDS_P2;PMS_P1;PMS_P2;Temp;Humidity;BMP_temperature;BMP_pressure;BME280_temperature;BME280_humidity;BME280_pressure;Samples;Min_cycle;Max_cycle;Signal;HPM_P1;HPM_P2
2023/02/06 00:01:36;;;;;;;9.00;8.20;;;4.60;99.90;;;;;;5038802;28;20267;-85
2023/02/06 00:04:01;;;;;;;8.73;7.93;;;4.50;99.90;;;;;;5026674;28;20201;-86
2023/02/06 00:06:27;;;;;;;9.43;8.63;;;4.50;99.90;;;;;;5040426;28;20181;-86
2023/02/06 00:08:53;;;;;;;10.20;9.23;;;4.60;99.90;;;;;;5040860;28;20212;-85
2023/02/06 00:11:20;;;;;;;9.87;9.07;;;4.50;99.90;;;;;;5020731;28;20198;-86
2023/02/06 00:13:45;;;;;;;10.00;9.10;;;4.60;99.90;;;;;;5020608;28;20482;-85
2023/02/06 00:16:31;;;;;;;9.67;8.77;;;4.50;99.90;;;;;;5021285;28;20174;-86
2023/02/06 00:18:58;;;;;;;9.93;8.97;;;4.40;99.90;;;;;;5040966;28;20193;-86
2023/02/06 00:21:25;;;;;;;9.67;8.87;;;4.40;99.90;;;;;;5035563;28;20654;-86
2023/02/06 00:23:53;;;;;;;10.23;9.20;;;4.50;99.90;;;;;;5042640;28;20249;-87
2023/02/06 00:26:18;;;;;;;10.07;9.23;;;4.50;99.90;;;;;;5043542;28;20188;-87
2023/02/06 00:28:45;;;;;;;10.50;9.50;;;4.40;99.90;;;;;;5043107;28;20216;-87
2023/02/06 00:31:11;;;;;;;10.80;9.80;;;4.30;99.90;;;;;;5043409;28;20189;-84
2023/02/06 00:33:37;;;;;;;10.77;9.77;;;4.30;99.90;;;;;;5044271;28;20523;-86
2023/02/06 00:36:03;;;;;;;11.07;10.07;;;4.30;99.90;;;;;;5042621;28;20235;-85
2023/02/06 00:38:30;;;;;;;11.17;10.07;;;4.30;99.90;;;;;;5042317;28;20185;-84
2023/02/06 00:40:55;;;;;;;10.67;9.67;;;4.20;99.90;;;;;;5041577;28;20250;-83
2023/02/06 00:43:22;;;;;;;11.43;10.33;;;4.20;99.90;;;;;;5041643;28;20323;-85
2023/02/06 00:45:52;;;;;;;11.40;10.30;;;4.20;99.90;;;;;;5041874;28;20193;-85
2023/02/06 00:48:17;;;;;;;11.20;10.20;;;4.20;99.90;;;;;;5041942;28;20276;-84
2023/02/06 00:50:43;;;;;;;11.80;10.60;;;4.10;99.90;;;;;;5041728;28;20200;-85
2023/02/06 00:53:09;;;;;;;11.07;10.07;;;4.20;99.90;;;;;;5043743;28;20204;-86
2023/02/06 00:55:35;;;;;;;11.30;10.20;;;4.20;99.90;;;;;;5043595;28;20185;-85
2023/02/06 00:58:00;;;;;;;12.60;10.60;;;4.10;99.90;;;;;;5043531;28;20673;-85
2023/02/06 01:00:26;;;;;;;11.63;10.53;;;4.00;99.90;;;;;;5043852;28;20288;-84
2023/02/06 01:02:51;;;;;;;11.40;10.30;;;4.00;99.90;;;;;;5031091;28;20201;-85
2023/02/06 01:05:17;;;;;;;12.03;10.90;;;4.00;99.90;;;;;;5038450;28;20189;-85
2023/02/06 01:07:44;;;;;;;12.50;11.33;;;4.00;99.90;;;;;;5041348;28;20277;-86
2023/02/06 01:10:10;;;;;;;11.77;10.67;;;4.10;99.90;;;;;;5039856;28;20205;-84
2023/02/06 01:12:36;;;;;;;11.97;10.80;;;4.10;99.90;;;;;;5041043;28;20186;-86
2023/02/06 01:15:06;;;;;;;11.67;10.47;;;4.10;99.90;;;;;;5034129;28;20186;-86
2023/02/06 01:17:33;;;;;;;12.10;10.70;;;4.00;99.90;;;;;;5043417;28;20177;-86
2023/02/06 01:19:59;;;;;;;12.43;11.23;;;3.90;99.90;;;;;;5044541;28;20263;-86
2023/02/06 01:22:25;;;;;;;11.90;10.80;;;3.80;99.90;;;;;;5044392;28;20200;-84
2023/02/06 01:24:51;;;;;;;12.43;11.23;;;3.80;99.90;;;;;;5042848;28;20279;-86
2023/02/06 01:27:16;;;;;;;12.40;11.23;;;3.70;99.90;;;;;;5044140;28;20188;-88
2023/02/06 01:29:42;;;;;;;12.93;11.63;;;3.80;99.90;;;;;;5044306;28;20192;-86
2023/02/06 01:32:08;;;;;;;12.07;10.87;;;3.70;99.90;;;;;;5042430;28;20208;-86
2023/02/06 01:34:34;;;;;;;12.13;10.93;;;3.80;99.90;;;;;;5039572;28;20271;-87
2023/02/06 01:36:59;;;;;;;12.27;11.03;;;3.80;99.90;;;;;;5038240;28;20181;-87
2023/02/06 01:39:25;;;;;;;11.90;10.73;;;3.90;99.90;;;;;;5039919;28;20245;-86
2023/02/06 01:41:50;;;;;;;12.10;10.90;;;4.10;99.90;;;;;;5039017;28;20205;-84
2023/02/06 01:44:25;;;;;;;12.47;11.27;;;4.00;99.90;;;;;;5039649;28;20181;-86
2023/02/06 01:46:53;;;;;;;12.80;11.53;;;4.10;99.90;;;;;;5040328;28;20187;-86
2023/02/06 01:49:23;;;;;;;12.80;11.70;;;4.10;99.90;;;;;;5041350;28;20259;-85
2023/02/06 01:51:52;;;;;;;12.07;10.97;;;4.20;99.90;;;;;;5040169;28;20197;-84
2023/02/06 01:54:18;;;;;;;13.30;11.77;;;4.20;99.90;;;;;;5041001;28;20181;-87
2023/02/06 01:56:52;;;;;;;13.57;12.20;;;4.10;99.90;;;;;;5040768;28;20176;-87
2023/02/06 01:59:18;;;;;;;12.30;11.03;;;4.10;99.90;;;;;;5040669;28;20173;-86
2023/02/06 02:01:44;;;;;;;12.63;11.43;;;3.90;99.90;;;;;;5034711;28;20490;-88
2023/02/06 02:04:15;;;;;;;11.90;10.73;;;3.80;99.90;;;;;;5027643;28;20184;-85
2023/02/06 02:06:40;;;;;;;11.83;10.63;;;3.80;99.90;;;;;;5039146;28;20161;-86
2023/02/06 02:09:08;;;;;;;11.80;10.60;;;3.90;99.90;;;;;;5037386;28;20305;-87
2023/02/06 02:11:40;;;;;;;13.57;12.10;;;4.00;99.90;;;;;;5029093;28;20197;-86
2023/02/06 02:14:09;;;;;;;13.63;12.27;;;4.00;99.90;;;;;;5039420;28;20169;-86
2023/02/06 02:16:41;;;;;;;12.47;11.20;;;3.90;99.90;;;;;;5038202;28;20177;-86
2023/02/06 02:19:15;;;;;;;12.90;11.63;;;3.90;99.90;;;;;;5040158;28;20181;-86
2023/02/06 02:22:15;;;;;;;13.13;11.83;;;4.00;99.90;;;;;;5040627;28;20219;-86
2023/02/06 02:24:59;;;;;;;13.23;11.83;;;4.00;99.90;;;;;;5040090;28;20180;-88
2023/02/06 02:28:02;;;;;;;13.33;12.00;;;4.00;99.90;;;;;;5039453;28;20666;-86
2023/02/06 02:30:58;;;;;;;13.90;12.50;;;4.00;99.90;;;;;;5039096;28;20283;-86
2023/02/06 02:33:45;;;;;;;13.93;12.53;;;4.00;99.90;;;;;;5038256;28;20177;-86
2023/02/06 02:36:38;;;;;;;15.47;13.87;;;4.00;99.90;;;;;;5036271;28;20169;-86
2023/02/06 02:39:21;;;;;;;13.97;12.57;;;4.00;99.90;;;;;;5038035;28;20188;-87
2023/02/06 02:42:00;;;;;;;15.93;14.27;;;4.00;99.90;;;;;;5037965;28;20235;-85
2023/02/06 02:44:48;;;;;;;14.17;12.67;;;4.00;99.90;;;;;;5039023;28;20193;-87
2023/02/06 02:47:17;;;;;;;13.63;12.23;;;4.00;99.90;;;;;;5020593;28;20441;-86
2023/02/06 02:49:44;;;;;;;15.40;13.90;;;4.00;99.90;;;;;;5021351;28;20253;-85
2023/02/06 02:52:11;;;;;;;14.73;13.30;;;4.00;99.90;;;;;;5036773;28;20181;-86
2023/02/06 02:54:36;;;;;;;16.43;14.20;;;4.00;99.90;;;;;;5040549;28;20670;-86
2023/02/06 02:57:13;;;;;;;16.63;14.87;;;4.00;99.90;;;;;;5039619;28;20177;-87
2023/02/06 02:59:44;;;;;;;15.87;14.27;;;3.90;99.90;;;;;;5038417;28;20252;-87
2023/02/06 03:02:32;;;;;;;18.60;16.10;;;3.80;99.90;;;;;;5032463;28;20201;-85
2023/02/06 03:05:19;;;;;;;18.20;15.83;;;3.80;99.90;;;;;;5033849;28;20196;-87
2023/02/06 03:08:15;;;;;;;18.00;16.10;;;3.80;99.90;;;;;;5033335;28;20244;-85
2023/02/06 03:11:12;;;;;;;18.07;15.80;;;3.80;99.90;;;;;;5034489;28;20205;-87
2023/02/06 03:13:51;;;;;;;17.63;15.53;;;3.80;99.90;;;;;;5040460;28;20169;-85
2023/02/06 03:16:22;;;;;;;19.20;16.33;;;3.80;99.90;;;;;;5040120;28;20173;-86
2023/02/06 03:19:01;;;;;;;19.40;16.07;;;3.80;99.90;;;;;;5040215;28;20169;-85
2023/02/06 03:21:28;;;;;;;19.00;17.00;;;3.80;99.90;;;;;;5040830;28;20200;-86
2023/02/06 03:23:57;;;;;;;18.10;16.20;;;3.90;99.90;;;;;;5039781;28;20173;-85
2023/02/06 03:26:27;;;;;;;19.87;17.00;;;3.90;99.90;;;;;;5038500;28;20208;-86
2023/02/06 03:28:58;;;;;;;19.30;17.37;;;4.00;99.90;;;;;;5038998;28;20268;-88
2023/02/06 03:31:32;;;;;;;20.47;18.27;;;4.00;99.90;;;;;;5038747;28;20192;-85
2023/02/06 03:34:18;;;;;;;18.77;16.67;;;4.00;99.90;;;;;;5040139;28;20165;-88
2023/02/06 03:36:44;;;;;;;19.10;16.93;;;3.90;99.90;;;;;;5037268;28;20161;-86
2023/02/06 03:39:10;;;;;;;20.13;17.13;;;3.90;99.90;;;;;;5041336;28;20263;-87
2023/02/06 03:41:38;;;;;;;19.83;16.90;;;3.80;99.90;;;;;;5044018;28;20205;-87
2023/02/06 03:44:08;;;;;;;20.40;18.30;;;3.80;99.90;;;;;;5044596;28;20185;-85
2023/02/06 03:46:36;;;;;;;20.53;18.43;;;3.80;99.90;;;;;;5043752;28;20238;-86
2023/02/06 03:49:06;;;;;;;22.10;19.73;;;3.70;99.90;;;;;;5044708;28;20213;-86
2023/02/06 03:51:41;;;;;;;21.40;18.17;;;3.80;99.90;;;;;;5045901;28;20212;-85
2023/02/06 03:54:10;;;;;;;20.60;17.90;;;3.80;99.90;;;;;;5045627;28;20374;-86
2023/02/06 03:56:45;;;;;;;19.73;17.60;;;3.80;99.90;;;;;;5044131;28;20549;-86
2023/02/06 03:59:12;;;;;;;20.97;17.40;;;3.70;99.90;;;;;;5044559;28;20157;-86
2023/02/06 04:01:45;;;;;;;20.10;17.73;;;3.70;99.90;;;;;;5042580;28;20216;-87
2023/02/06 04:04:18;;;;;;;20.70;18.33;;;3.70;99.90;;;;;;5037985;28;20204;-88
2023/02/06 04:06:43;;;;;;;21.30;18.97;;;3.80;99.90;;;;;;5040951;28;20189;-87
2023/02/06 04:09:09;;;;;;;21.43;19.07;;;3.80;99.90;;;;;;5043615;28;20275;-88
2023/02/06 04:11:35;;;;;;;20.30;18.20;;;3.80;99.90;;;;;;5044609;28;20216;-87
2023/02/06 04:14:01;;;;;;;21.37;19.13;;;3.80;99.90;;;;;;5044658;28;20301;-86
2023/02/06 04:16:27;;;;;;;22.33;19.93;;;3.70;99.90;;;;;;5043913;28;20181;-87
2023/02/06 04:18:52;;;;;;;21.30;18.80;;;3.70;99.90;;;;;;5044019;28;20267;-87
2023/02/06 04:21:18;;;;;;;20.07;17.93;;;3.70;99.90;;;;;;5044212;28;20197;-87
2023/02/06 04:23:43;;;;;;;20.93;18.03;;;3.70;99.90;;;;;;5043914;28;20211;-86
2023/02/06 04:26:09;;;;;;;21.67;19.37;;;3.80;99.90;;;;;;5046217;28;20181;-87
2023/02/06 04:28:35;;;;;;;18.13;16.23;;;3.70;99.90;;;;;;5049460;28;20281;-87
2023/02/06 04:31:00;;;;;;;19.00;17.00;;;3.80;99.90;;;;;;5049266;28;20199;-89
2023/02/06 04:33:26;;;;;;;19.93;17.27;;;3.90;99.90;;;;;;5049933;28;20215;-89
2023/02/06 04:35:51;;;;;;;20.17;18.00;;;3.80;99.90;;;;;;5045089;28;20942;-87
2023/02/06 04:38:17;;;;;;;21.57;18.00;;;3.70;99.90;;;;;;5042014;28;20679;-86
2023/02/06 04:40:43;;;;;;;20.23;17.20;;;3.80;99.90;;;;;;5040998;28;20295;-88
2023/02/06 04:43:09;;;;;;;20.33;18.20;;;3.70;99.90;;;;;;5041633;28;20543;-88
2023/02/06 04:45:34;;;;;;;20.53;17.57;;;3.70;99.90;;;;;;5039729;28;20238;-86
2023/02/06 04:48:00;;;;;;;20.37;18.30;;;3.70;99.90;;;;;;5041537;28;20212;-86
2023/02/06 04:50:30;;;;;;;20.53;18.33;;;3.70;99.90;;;;;;5038542;28;20196;-87
2023/02/06 04:52:55;;;;;;;19.67;16.87;;;3.60;99.90;;;;;;5039473;28;20177;-87
2023/02/06 04:55:21;;;;;;;19.03;17.13;;;3.60;99.90;;;;;;5038468;28;20704;-88
2023/02/06 04:57:47;;;;;;;19.47;17.37;;;3.50;99.90;;;;;;5026104;28;20197;-86
2023/02/06 05:00:13;;;;;;;18.47;16.50;;;3.60;99.90;;;;;;5029778;28;20273;-86
2023/02/06 05:02:39;;;;;;;20.70;16.83;;;3.60;99.90;;;;;;5029274;28;20197;-87
2023/02/06 05:05:07;;;;;;;18.40;16.50;;;3.50;99.90;;;;;;5031877;28;20225;-86
2023/02/06 05:07:33;;;;;;;18.83;16.10;;;3.60;99.90;;;;;;5027970;28;20193;-86
2023/02/06 05:09:59;;;;;;;19.23;16.30;;;3.70;99.90;;;;;;5028181;28;20208;-87
2023/02/06 05:12:25;;;;;;;17.80;15.87;;;3.70;99.90;;;;;;5041918;28;20193;-87
2023/02/06 05:14:50;;;;;;;19.63;17.63;;;3.60;99.90;;;;;;5040889;28;20168;-86
2023/02/06 05:17:16;;;;;;;19.03;17.20;;;3.60;99.90;;;;;;5040817;28;20247;-87
2023/02/06 05:19:41;;;;;;;19.23;17.23;;;3.60;99.90;;;;;;5039997;28;20199;-87
2023/02/06 05:22:07;;;;;;;20.50;17.17;;;3.60;99.90;;;;;;5038937;28;20246;-87
2023/02/06 05:24:33;;;;;;;18.57;16.67;;;3.60;99.90;;;;;;5038944;28;20317;-86
2023/02/06 05:26:58;;;;;;;18.33;16.43;;;3.60;99.90;;;;;;5037063;28;20717;-86
2023/02/06 05:29:25;;;;;;;20.13;16.27;;;3.60;99.90;;;;;;5039819;28;20266;-86
2023/02/06 05:31:51;;;;;;;18.70;16.37;;;3.50;99.90;;;;;;5036786;28;20441;-85
2023/02/06 05:34:16;;;;;;;17.90;15.50;;;3.60;99.90;;;;;;5035973;28;20216;-86
2023/02/06 05:36:42;;;;;;;18.00;15.60;;;3.60;99.90;;;;;;5036713;28;20185;-86
2023/02/06 05:39:08;;;;;;;18.07;16.17;;;3.60;99.90;;;;;;5036466;28;20197;-86
2023/02/06 05:41:33;;;;;;;20.13;16.77;;;3.70;99.90;;;;;;5036528;28;20205;-88
2023/02/06 05:43:59;;;;;;;18.83;16.33;;;3.80;99.90;;;;;;5037030;28;20243;-85
2023/02/06 05:46:25;;;;;;;21.63;17.43;;;3.90;99.90;;;;;;5036229;28;20260;-86
2023/02/06 05:48:50;;;;;;;18.57;16.30;;;3.80;99.90;;;;;;5034326;28;20205;-86
2023/02/06 05:51:16;;;;;;;18.17;16.33;;;3.90;99.90;;;;;;5033883;28;20224;-86
2023/02/06 05:53:42;;;;;;;17.90;15.57;;;3.80;99.90;;;;;;5035489;28;20211;-86
2023/02/06 05:56:07;;;;;;;17.37;14.70;;;3.80;99.90;;;;;;5028043;28;20418;-86
2023/02/06 05:58:33;;;;;;;16.03;14.43;;;3.80;99.90;;;;;;5032901;28;20199;-87
2023/02/06 06:00:59;;;;;;;19.23;17.17;;;3.90;99.90;;;;;;5004581;28;20292;-87
2023/02/06 06:03:24;;;;;;;16.47;14.77;;;3.90;99.90;;;;;;5012409;28;20205;-86
2023/02/06 06:05:52;;;;;;;18.13;16.23;;;3.80;99.90;;;;;;5021320;28;20189;-85
2023/02/06 06:08:18;;;;;;;19.10;17.10;;;3.80;99.90;;;;;;5013281;28;20210;-87
2023/02/06 06:10:43;;;;;;;17.80;16.10;;;3.90;99.90;;;;;;5020008;28;20193;-86
2023/02/06 06:13:09;;;;;;;18.87;16.83;;;3.80;99.90;;;;;;5014865;28;20189;-86
2023/02/06 06:15:35;;;;;;;17.40;15.70;;;3.80;99.90;;;;;;5008470;28;20651;-86
2023/02/06 06:18:01;;;;;;;19.13;17.13;;;3.70;99.90;;;;;;5012899;28;20200;-88
2023/02/06 06:20:27;;;;;;;19.70;16.83;;;3.80;99.90;;;;;;5023879;28;20240;-87
2023/02/06 06:22:52;;;;;;;17.03;15.27;;;3.80;99.90;;;;;;5011964;28;20208;-86
2023/02/06 06:25:18;;;;;;;17.17;15.37;;;3.70;99.90;;;;;;5015492;28;20299;-85
2023/02/06 06:27:43;;;;;;;16.30;14.60;;;3.70;99.90;;;;;;5012539;28;20197;-86
2023/02/06 06:30:10;;;;;;;18.17;16.27;;;3.90;99.90;;;;;;5011426;28;20216;-86
2023/02/06 06:32:35;;;;;;;16.37;14.60;;;3.90;99.90;;;;;;5015056;28;20190;-86
2023/02/06 06:35:01;;;;;;;16.90;15.10;;;3.90;99.90;;;;;;5015830;28;20188;-87
2023/02/06 06:37:27;;;;;;;15.77;14.00;;;3.90;99.90;;;;;;5013136;28;20205;-85
2023/02/06 06:39:52;;;;;;;16.00;14.10;;;4.00;99.90;;;;;;5013324;28;20209;-87
2023/02/06 06:42:18;;;;;;;17.83;16.03;;;4.00;99.90;;;;;;5016911;28;20205;-86
2023/02/06 06:44:43;;;;;;;18.10;16.30;;;4.10;99.90;;;;;;5014176;28;20235;-85
2023/02/06 06:47:09;;;;;;;19.27;16.37;;;4.00;99.90;;;;;;5011641;28;20193;-85
2023/02/06 06:49:35;;;;;;;18.47;16.57;;;4.00;99.90;;;;;;5018548;28;20208;-86
2023/02/06 06:52:01;;;;;;;17.70;15.90;;;3.90;99.90;;;;;;5012906;28;20189;-86
2023/02/06 06:54:26;;;;;;;16.83;15.00;;;3.90;99.90;;;;;;5010533;28;20195;-87
2023/02/06 06:56:52;;;;;;;16.77;15.07;;;3.90;99.90;;;;;;5018782;28;20480;-85
2023/02/06 06:59:18;;;;;;;18.03;16.17;;;4.00;99.90;;;;;;5007796;28;20193;-84
2023/02/06 07:01:43;;;;;;;18.80;16.40;;;4.00;99.90;;;;;;5007600;28;20205;-86
2023/02/06 07:04:09;;;;;;;19.27;17.20;;;4.00;99.90;;;;;;5014782;28;20293;-85
2023/02/06 07:06:34;;;;;;;20.47;17.43;;;3.80;99.90;;;;;;5023836;28;20185;-86
2023/02/06 07:09:00;;;;;;;25.03;18.30;;;3.60;99.90;;;;;;5016411;28;20236;-86
2023/02/06 07:11:26;;;;;;;22.70;18.73;;;3.50;99.90;;;;;;5011906;28;20804;-85
2023/02/06 07:13:52;;;;;;;22.83;19.13;;;3.50;99.90;;;;;;5017299;28;20181;-87
2023/02/06 07:16:18;;;;;;;20.70;18.40;;;3.60;99.90;;;;;;5021408;28;20189;-87
2023/02/06 07:18:43;;;;;;;19.03;16.83;;;3.50;99.90;;;;;;5023733;28;20238;-85
2023/02/06 07:21:10;;;;;;;17.17;15.20;;;3.50;99.90;;;;;;5022496;28;20280;-86
2023/02/06 07:23:37;;;;;;;19.33;17.33;;;3.50;99.90;;;;;;5024633;28;20193;-85
2023/02/06 07:26:03;;;;;;;19.07;16.80;;;3.60;99.90;;;;;;5020434;28;20193;-86
2023/02/06 07:28:30;;;;;;;20.43;17.30;;;3.60;99.90;;;;;;5022350;28;20903;-86
2023/02/06 07:31:03;;;;;;;19.47;17.47;;;3.60;99.90;;;;;;5035131;28;20205;-86
2023/02/06 07:33:29;;;;;;;19.23;16.83;;;3.60;99.90;;;;;;5039294;28;20252;-86
2023/02/06 07:35:55;;;;;;;18.80;16.80;;;3.60;99.90;;;;;;5038431;28;20184;-85
2023/02/06 07:38:21;;;;;;;19.37;15.93;;;3.70;99.90;;;;;;5039629;28;20191;-89
2023/02/06 07:40:46;;;;;;;26.03;19.87;;;3.70;99.90;;;;;;5036755;28;20695;-89
2023/02/06 07:43:14;;;;;;;24.70;21.07;;;3.60;99.90;;;;;;5036945;28;20196;-87
2023/02/06 07:45:40;;;;;;;24.60;21.93;;;3.60;99.90;;;;;;5035554;28;20199;-88
2023/02/06 07:48:06;;;;;;;22.53;19.00;;;3.50;99.90;;;;;;5035598;28;20225;-89
2023/02/06 07:50:32;;;;;;;22.63;20.23;;;3.40;99.90;;;;;;5022743;28;20196;-88
2023/02/06 07:52:57;;;;;;;22.37;19.80;;;3.40;99.90;;;;;;5035368;28;20210;-87
2023/02/06 07:55:23;;;;;;;24.07;21.30;;;3.40;99.90;;;;;;5036758;28;20570;-86
2023/02/06 07:57:48;;;;;;;22.07;19.47;;;3.40;99.90;;;;;;5038203;28;20276;-86
2023/02/06 08:00:15;;;;;;;21.23;17.77;;;3.40;99.90;;;;;;5038463;28;20231;-87
2023/02/06 08:02:41;;;;;;;19.93;17.80;;;3.40;99.90;;;;;;5027645;28;20284;-87
2023/02/06 08:05:07;;;;;;;20.77;18.57;;;3.40;99.90;;;;;;5033760;28;20251;-88
2023/02/06 08:07:33;;;;;;;24.27;19.87;;;3.50;99.90;;;;;;5037222;28;20223;-87
2023/02/06 08:09:58;;;;;;;19.27;17.37;;;3.40;99.90;;;;;;5028500;28;20209;-88
2023/02/06 08:12:24;;;;;;;22.80;20.23;;;3.40;99.90;;;;;;5034102;28;20606;-87
2023/02/06 08:14:50;;;;;;;26.93;23.37;;;3.30;99.90;;;;;;5036820;28;20181;-87
2023/02/06 08:17:16;;;;;;;28.77;24.23;;;3.20;99.90;;;;;;5037501;28;20184;-88
2023/02/06 08:19:41;;;;;;;24.97;21.23;;;3.20;99.90;;;;;;5035172;28;20295;-88
2023/02/06 08:22:07;;;;;;;21.67;19.23;;;3.20;99.90;;;;;;5036731;28;20220;-87
2023/02/06 08:24:33;;;;;;;19.43;17.33;;;3.30;99.90;;;;;;5035323;28;20200;-87
2023/02/06 08:26:58;;;;;;;18.77;16.33;;;3.40;99.90;;;;;;5034361;28;20199;-88
2023/02/06 08:29:25;;;;;;;20.00;16.70;;;3.50;99.90;;;;;;5034151;28;20292;-87
2023/02/06 08:31:50;;;;;;;20.67;16.90;;;3.60;99.90;;;;;;5034099;28;20227;-87
2023/02/06 08:34:16;;;;;;;18.63;16.43;;;3.60;99.90;;;;;;5035092;28;20185;-87
2023/02/06 08:36:42;;;;;;;19.53;16.60;;;3.70;99.90;;;;;;5032672;28;20181;-87
2023/02/06 08:39:11;;;;;;;18.60;16.37;;;3.50;99.90;;;;;;5034061;28;20212;-89
2023/02/06 08:41:40;;;;;;;19.87;16.13;;;3.60;99.90;;;;;;5033055;28;20220;-87
2023/02/06 08:44:13;;;;;;;19.27;16.97;;;3.70;99.90;;;;;;5033154;28;20201;-88
2023/02/06 08:46:39;;;;;;;22.03;16.73;;;3.80;99.90;;;;;;5025018;28;20177;-87
2023/02/06 08:49:11;;;;;;;18.37;16.33;;;3.90;99.90;;;;;;5034326;28;20467;-86
2023/02/06 08:51:37;;;;;;;17.87;15.97;;;3.80;99.90;;;;;;5034524;28;20243;-87
2023/02/06 08:54:05;;;;;;;19.50;16.53;;;3.80;99.90;;;;;;5032657;28;20173;-87
2023/02/06 08:56:32;;;;;;;18.60;16.30;;;3.80;99.90;;;;;;5034011;28;20857;-88
2023/02/06 08:58:59;;;;;;;19.07;16.00;;;3.70;99.90;;;;;;5033628;28;20266;-88
2023/02/06 09:01:26;;;;;;;20.50;15.83;;;3.70;99.90;;;;;;5034433;28;20239;-87
2023/02/06 09:03:56;;;;;;;17.60;15.27;;;3.80;99.90;;;;;;5018566;28;20188;-87
2023/02/06 09:06:22;;;;;;;18.93;16.93;;;3.90;99.90;;;;;;5031428;28;20714;-87
2023/02/06 09:08:48;;;;;;;17.20;15.27;;;3.80;99.90;;;;;;5032209;28;20205;-87
2023/02/06 09:11:15;;;;;;;17.60;15.37;;;3.90;99.90;;;;;;5028606;28;20350;-87
2023/02/06 09:13:42;;;;;;;16.73;14.90;;;4.00;99.90;;;;;;5034465;28;20176;-87
2023/02/06 09:16:08;;;;;;;19.73;14.63;;;4.00;99.90;;;;;;5031843;28;20185;-87
2023/02/06 09:18:35;;;;;;;17.93;15.00;;;4.20;99.90;;;;;;5034342;28;20185;-88
2023/02/06 09:21:18;;;;;;;17.80;15.87;;;4.20;99.20;;;;;;5033212;28;20286;-88
2023/02/06 09:23:49;;;;;;;15.93;14.17;;;4.10;99.90;;;;;;5031174;28;20169;-87
2023/02/06 09:26:26;;;;;;;16.57;14.80;;;4.20;99.40;;;;;;5033543;28;20192;-87
2023/02/06 09:28:57;;;;;;;16.53;13.87;;;4.20;98.40;;;;;;5034802;28;20331;-87
2023/02/06 09:31:23;;;;;;;14.43;11.13;;;4.20;97.10;;;;;;5034654;28;20209;-87
2023/02/06 09:33:49;;;;;;;15.50;13.90;;;4.20;97.40;;;;;;5033905;28;20307;-87
2023/02/06 09:36:17;;;;;;;15.57;13.97;;;4.20;99.40;;;;;;5031688;28;20227;-88
2023/02/06 09:38:46;;;;;;;15.10;13.00;;;4.20;98.20;;;;;;5032090;28;20216;-88
2023/02/06 09:41:31;;;;;;;13.37;11.97;;;4.40;98.70;;;;;;5023462;28;20213;-88
2023/02/06 09:43:58;;;;;;;14.47;12.90;;;4.50;96.20;;;;;;5018475;28;20698;-87
2023/02/06 09:46:30;;;;;;;14.20;12.80;;;4.70;98.00;;;;;;5032085;28;20217;-89
2023/02/06 09:48:57;;;;;;;13.37;11.97;;;4.90;94.40;;;;;;5032314;28;20216;-87
2023/02/06 09:51:38;;;;;;;12.93;11.67;;;5.00;92.80;;;;;;5034084;28;20279;-87
2023/02/06 09:54:43;;;;;;;12.40;11.10;;;5.00;89.10;;;;;;5033948;28;20573;-87
2023/02/06 09:57:49;;;;;;;11.50;10.40;;;5.00;91.40;;;;;;5031672;28;20176;-87
2023/02/06 10:00:34;;;;;;;13.10;11.80;;;4.90;89.50;;;;;;5033199;28;20215;-87
2023/02/06 10:03:12;;;;;;;13.57;12.17;;;5.00;90.70;;;;;;5019719;28;20189;-87
2023/02/06 10:06:03;;;;;;;16.20;12.97;;;5.00;90.70;;;;;;5025036;28;20195;-87
2023/02/06 10:08:56;;;;;;;14.17;12.70;;;5.10;93.00;;;;;;5031761;28;20253;-87
2023/02/06 10:11:40;;;;;;;15.33;13.37;;;5.00;93.90;;;;;;5028007;28;20201;-87
2023/02/06 10:14:21;;;;;;;15.43;13.80;;;4.90;95.50;;;;;;5016127;28;20212;-87
2023/02/06 10:16:55;;;;;;;15.30;13.47;;;5.10;96.40;;;;;;5032625;28;20199;-87
2023/02/06 10:19:49;;;;;;;14.43;12.90;;;5.10;95.40;;;;;;5033584;28;20177;-88
2023/02/06 10:22:30;;;;;;;14.07;11.63;;;5.10;95.30;;;;;;5032613;28;20191;-88
2023/02/06 10:25:17;;;;;;;14.33;12.77;;;5.00;93.60;;;;;;5033158;28;20217;-86
2023/02/06 10:27:45;;;;;;;14.20;12.70;;;5.00;94.20;;;;;;5032506;28;20203;-87
2023/02/06 10:30:21;;;;;;;12.77;11.40;;;5.00;95.40;;;;;;5031885;28;20205;-87
2023/02/06 10:33:36;;;;;;;13.13;11.80;;;5.00;94.70;;;;;;5032616;28;20654;-88
2023/02/06 10:36:19;;;;;;;12.33;11.10;;;4.90;95.00;;;;;;4991220;28;20278;-87
2023/02/06 10:38:45;;;;;;;10.63;9.03;;;5.00;93.20;;;;;;5024078;28;20383;-87
2023/02/06 10:41:30;;;;;;;11.53;9.97;;;4.90;91.60;;;;;;5031767;28;20261;-87
2023/02/06 10:44:11;;;;;;;11.57;10.37;;;4.80;91.40;;;;;;5032494;28;20179;-87
2023/02/06 10:46:47;;;;;;;12.47;9.63;;;4.80;93.30;;;;;;5032531;28;20177;-86
2023/02/06 10:49:35;;;;;;;12.50;10.43;;;4.80;93.50;;;;;;5031795;28;20200;-88
2023/02/06 10:52:12;;;;;;;10.70;9.60;;;4.80;91.90;;;;;;5030745;28;20698;-87
2023/02/06 10:54:43;;;;;;;10.30;9.20;;;4.80;90.70;;;;;;5012186;28;20651;-87
2023/02/06 10:57:16;;;;;;;11.27;9.20;;;4.80;91.30;;;;;;5023340;28;20173;-87
2023/02/06 10:59:46;;;;;;;11.33;9.57;;;4.80;92.80;;;;;;5030678;28;20184;-87
2023/02/06 11:02:34;;;;;;;9.47;8.33;;;4.70;90.40;;;;;;5027119;28;20254;-88
2023/02/06 11:05:07;;;;;;;10.60;8.70;;;4.80;91.10;;;;;;5025947;28;20299;-87
2023/02/06 11:07:36;;;;;;;12.67;9.20;;;4.70;89.50;;;;;;5031856;28;20184;-87
2023/02/06 11:10:03;;;;;;;10.63;8.60;;;4.70;92.40;;;;;;5034153;28;20208;-87
2023/02/06 11:12:36;;;;;;;9.60;8.60;;;4.70;92.20;;;;;;5040195;28;20187;-88
2023/02/06 11:15:13;;;;;;;9.20;8.40;;;4.70;91.30;;;;;;5031541;28;20185;-87
2023/02/06 11:17:39;;;;;;;9.87;8.27;;;4.70;91.50;;;;;;5030965;28;20206;-87
2023/02/06 11:20:20;;;;;;;11.57;9.23;;;4.70;92.70;;;;;;5031463;28;20204;-87
2023/02/06 11:22:45;;;;;;;9.03;8.13;;;4.90;92.60;;;;;;5018061;28;20570;-87
2023/02/06 11:25:19;;;;;;;10.53;8.67;;;5.10;90.10;;;;;;5030507;28;20659;-86
2023/02/06 11:27:45;;;;;;;9.57;8.23;;;5.30;89.50;;;;;;5030252;28;20601;-89
2023/02/06 11:30:34;;;;;;;9.57;8.37;;;5.20;87.70;;;;;;5030282;28;20212;-86
2023/02/06 11:33:28;;;;;;;8.50;7.70;;;5.20;87.70;;;;;;5022974;28;20190;-87
2023/02/06 11:35:58;;;;;;;7.23;6.53;;;5.20;87.00;;;;;;5023332;28;20176;-87
2023/02/06 11:38:29;;;;;;;9.60;8.27;;;5.10;86.50;;;;;;5030807;28;20189;-87
2023/02/06 11:41:05;;;;;;;11.53;7.83;;;5.20;87.60;;;;;;5030186;28;20427;-87
2023/02/06 11:43:44;;;;;;;8.47;7.43;;;5.20;87.60;;;;;;5031023;28;20169;-87
2023/02/06 11:46:14;;;;;;;8.83;7.30;;;5.20;87.60;;;;;;5031182;28;20177;-89
2023/02/06 11:49:12;;;;;;;7.53;6.73;;;5.20;86.10;;;;;;5032323;28;20233;-88
2023/02/06 11:51:56;;;;;;;8.80;6.63;;;5.20;86.40;;;;;;5030921;28;20213;-87
2023/02/06 11:54:28;;;;;;;7.07;5.83;;;5.30;86.10;;;;;;5031731;28;20208;-87
2023/02/06 11:57:20;;;;;;;6.80;5.43;;;5.10;86.70;;;;;;5028768;28;20208;-87
2023/02/06 12:00:00;;;;;;;5.93;5.33;;;5.20;85.80;;;;;;5029068;28;20264;-87
2023/02/06 12:02:32;;;;;;;6.13;5.53;;;5.20;85.00;;;;;;5030143;28;20303;-88
2023/02/06 12:05:09;;;;;;;8.43;6.30;;;5.20;82.60;;;;;;5027518;28;20200;-86
2023/02/06 12:08:01;;;;;;;6.57;5.63;;;5.10;83.70;;;;;;5034641;28;20212;-88
2023/02/06 12:10:33;;;;;;;6.67;6.07;;;5.20;83.20;;;;;;5036196;28;20207;-86
2023/02/06 12:13:27;;;;;;;5.97;5.37;;;5.40;83.20;;;;;;5034071;28;20175;-87
2023/02/06 12:15:56;;;;;;;6.43;4.90;;;5.50;81.40;;;;;;5034298;28;20174;-86
2023/02/06 12:18:37;;;;;;;6.80;5.93;;;5.60;80.40;;;;;;5033032;28;20177;-86
2023/02/06 12:21:14;;;;;;;5.27;4.67;;;5.70;80.30;;;;;;5032785;28;20836;-87
2023/02/06 12:23:42;;;;;;;5.57;4.83;;;5.60;78.10;;;;;;5022676;28;20180;-86
2023/02/06 12:26:20;;;;;;;5.47;4.97;;;5.60;78.50;;;;;;5031222;28;20181;-87
2023/02/06 12:28:52;;;;;;;5.13;4.63;;;5.70;80.30;;;;;;5017489;28;20636;-87
2023/02/06 12:31:20;;;;;;;5.63;5.13;;;5.90;78.40;;;;;;5029753;28;20679;-87
2023/02/06 12:33:50;;;;;;;4.73;4.07;;;5.90;75.70;;;;;;5032654;28;20256;-86
2023/02/06 12:36:20;;;;;;;6.60;4.60;;;5.90;75.50;;;;;;5032036;28;20558;-87
2023/02/06 12:39:00;;;;;;;6.37;4.70;;;6.00;75.90;;;;;;5033696;28;20185;-86
2023/02/06 12:41:41;;;;;;;7.03;4.33;;;5.90;76.10;;;;;;5034406;28;20230;-86
2023/02/06 12:44:23;;;;;;;9.40;5.40;;;5.80;76.20;;;;;;5034774;28;20185;-86
2023/02/06 12:47:02;;;;;;;4.67;4.27;;;5.80;76.90;;;;;;5033848;28;20227;-86
2023/02/06 12:49:36;;;;;;;8.03;5.13;;;5.90;77.10;;;;;;5032588;28;20249;-87
2023/02/06 12:52:25;;;;;;;4.83;4.40;;;5.90;77.80;;;;;;5032716;28;20184;-87
2023/02/06 12:55:01;;;;;;;5.20;4.10;;;6.00;77.30;;;;;;5024633;28;20655;-87
2023/02/06 12:57:30;;;;;;;4.17;3.77;;;6.00;76.60;;;;;;5032051;28;20252;-86
2023/02/06 13:00:33;;;;;;;4.33;3.93;;;6.00;74.90;;;;;;5030381;28;20289;-87